createdAt,value
2023-09-28T00:04:34.146Z,14.47
2023-09-28T00:09:36.770Z,14.03
2023-09-28T00:14:39.237Z,13.57
2023-09-28T00:19:41.693Z,14.10
2023-09-28T00:24:44.656Z,14.43
2023-09-28T00:29:48.058Z,14.57
2023-09-28T00:34:50.633Z,13.87
2023-09-28T00:39:56.377Z,14.63
2023-09-28T00:44:58.992Z,15.07
2023-09-28T00:50:05.265Z,14.40
2023-09-28T00:55:09.816Z,15.60
2023-09-28T01:00:27.330Z,15.73
2023-09-28T01:05:34.779Z,15.93
2023-09-28T01:10:38.553Z,17.37
2023-09-28T01:15:42.078Z,17.87
2023-09-28T01:20:46.552Z,18.90
2023-09-28T01:25:50.730Z,17.33
2023-09-28T01:30:53.517Z,17.53
2023-09-28T01:35:56.010Z,16.57
2023-09-28T01:40:59.378Z,15.63
2023-09-28T01:46:01.922Z,15.13
2023-09-28T01:51:04.671Z,16.07
2023-09-28T01:56:07.209Z,16.93
2023-09-28T02:01:09.733Z,16.30
2023-09-28T02:06:12.237Z,16.50
2023-09-28T02:11:14.952Z,17.17
2023-09-28T02:16:17.559Z,16.83
2023-09-28T02:21:20.347Z,16.57
2023-09-28T02:26:22.909Z,17.03
2023-09-28T02:31:26.044Z,17.07
2023-09-28T02:36:33.721Z,16.93
2023-09-28T02:41:36.969Z,16.70
2023-09-28T02:46:39.503Z,15.97
2023-09-28T02:51:44.135Z,15.13
2023-09-28T02:56:46.632Z,16.30
2023-09-28T03:01:53.333Z,15.47
2023-09-28T03:06:56.625Z,15.33
2023-09-28T03:11:59.416Z,15.23
2023-09-28T03:17:01.989Z,15.60
2023-09-28T03:22:05.376Z,14.50
2023-09-28T03:27:10.886Z,15.33
2023-09-28T03:32:13.952Z,15.87
2023-09-28T03:37:20.055Z,16.27
2023-09-28T03:42:22.552Z,15.40
2023-09-28T03:47:25.041Z,15.93
2023-09-28T03:52:27.591Z,17.30
2023-09-28T03:57:30.655Z,15.83
2023-09-28T04:02:33.267Z,16.40
2023-09-28T04:07:36.501Z,15.33
2023-09-28T04:12:40.180Z,15.20
2023-09-28T04:17:45.238Z,16.73
2023-09-28T04:22:48.181Z,17.10
2023-09-28T04:27:51.416Z,18.40
2023-09-28T04:32:55.626Z,18.90
2023-09-28T04:37:58.283Z,19.73
2023-09-28T04:43:00.718Z,19.10
2023-09-28T04:48:03.418Z,18.70
2023-09-28T04:53:05.994Z,19.70
2023-09-28T04:58:08.468Z,21.20
2023-09-28T05:03:11.157Z,18.97
2023-09-28T05:08:13.831Z,19.23
2023-09-28T05:13:16.437Z,18.80
2023-09-28T05:18:18.995Z,17.77
2023-09-28T05:23:21.486Z,19.90
2023-09-28T05:28:24.028Z,19.40
2023-09-28T05:33:26.585Z,21.07
2023-09-28T05:38:29.059Z,19.27
2023-09-28T05:43:31.574Z,20.77
2023-09-28T05:48:34.044Z,22.17
2023-09-28T05:53:37.233Z,24.10
2023-09-28T05:58:39.711Z,24.07
2023-09-28T06:03:42.280Z,24.27
2023-09-28T06:08:47.548Z,24.20
2023-09-28T06:14:06.285Z,23.50
2023-09-28T06:19:11.057Z,23.47
2023-09-28T06:24:13.515Z,24.53
2023-09-28T06:29:22.819Z,22.93
2023-09-28T06:34:32.264Z,23.97
2023-09-28T06:39:34.960Z,21.17
2023-09-28T06:44:38.136Z,21.80
2023-09-28T06:49:41.033Z,22.33
2023-09-28T06:54:43.607Z,22.43
2023-09-28T06:59:46.228Z,21.50
2023-09-28T07:04:48.839Z,20.07
2023-09-28T07:09:57.298Z,18.07
2023-09-28T07:15:00.625Z,18.63
2023-09-28T07:20:05.065Z,17.43
2023-09-28T07:25:08.355Z,16.17
2023-09-28T07:30:12.834Z,16.73
2023-09-28T07:35:16.963Z,16.07
2023-09-28T07:40:32.540Z,14.33
2023-09-28T07:45:47.855Z,14.23
2023-09-28T07:50:50.583Z,14.18
2023-09-28T07:55:53.341Z,13.25
2023-09-28T08:00:55.988Z,12.52
2023-09-28T08:05:58.586Z,12.45
2023-09-28T08:11:02.149Z,11.82
2023-09-28T08:16:05.738Z,11.52
2023-09-28T08:21:10.920Z,11.52
2023-09-28T08:26:13.693Z,10.73
2023-09-28T08:31:16.182Z,11.43
2023-09-28T08:36:19.604Z,10.43
2023-09-28T08:41:32.907Z,11.30
2023-09-28T08:51:48.553Z,11.27
2023-09-28T08:56:52.326Z,10.55
2023-09-28T09:01:55.345Z,9.10
2023-09-28T09:06:59.053Z,8.35
2023-09-28T09:12:04.877Z,8.10
2023-09-28T09:17:09.698Z,9.40
2023-09-28T09:22:27.067Z,8.57
2023-09-28T09:27:30.935Z,7.80
2023-09-28T09:32:33.568Z,11.45
2023-09-28T09:37:42.249Z,7.88
2023-09-28T09:42:44.724Z,8.07
2023-09-28T09:47:50.924Z,7.00
2023-09-28T09:52:54.699Z,7.95
2023-09-28T09:58:04.011Z,6.85
2023-09-28T10:03:08.837Z,6.32
2023-09-28T10:08:11.821Z,7.20
2023-09-28T10:13:15.247Z,6.18
2023-09-28T10:18:19.159Z,7.68
2023-09-28T10:23:26.336Z,6.03
2023-09-28T10:28:29.105Z,8.02
2023-09-28T10:33:35.627Z,7.70
2023-09-28T10:38:39.782Z,7.65
2023-09-28T10:43:46.896Z,7.53
2023-09-28T10:48:50.127Z,7.03
2023-09-28T10:53:52.946Z,6.72
2023-09-28T10:58:58.324Z,6.22
2023-09-28T11:04:01.198Z,6.25
2023-09-28T11:09:04.620Z,5.60
2023-09-28T11:14:07.950Z,5.72
2023-09-28T11:19:14.668Z,5.65
2023-09-28T11:24:17.243Z,6.22
2023-09-28T11:29:20.943Z,5.82
2023-09-28T11:34:30.809Z,5.68
2023-09-28T11:39:33.330Z,5.88
2023-09-28T11:44:37.309Z,6.90
2023-09-28T11:49:44.521Z,5.47
2023-09-28T11:54:48.208Z,6.05
2023-09-28T13:42:10.448Z,5.32
2023-09-28T13:47:13.246Z,6.90
2023-09-28T13:52:16.639Z,7.13
2023-09-28T13:57:19.227Z,5.75
2023-09-28T14:02:27.252Z,6.85
2023-09-28T14:07:29.755Z,6.28
2023-09-28T14:12:32.179Z,6.95
2023-09-28T14:17:39.252Z,6.78
2023-09-28T14:22:45.569Z,5.85
2023-09-28T14:27:49.215Z,8.18
2023-09-28T14:32:53.550Z,7.28
2023-09-28T14:37:56.264Z,7.20
2023-09-28T14:43:02.891Z,14.60
2023-09-28T14:48:05.918Z,10.20
2023-09-28T14:53:12.522Z,7.57
2023-09-28T14:58:15.550Z,6.20
2023-09-28T15:03:18.145Z,6.47
2023-09-28T15:08:20.801Z,6.15
2023-09-28T15:13:23.314Z,6.38
2023-09-28T15:18:25.938Z,7.07
2023-09-28T15:23:28.439Z,24.05
2023-09-28T15:28:31.343Z,6.35
2023-09-28T15:33:33.893Z,6.03
2023-09-28T15:38:36.735Z,6.05
2023-09-28T15:43:39.826Z,6.07
2023-09-28T15:48:42.276Z,6.20
2023-09-28T15:53:44.801Z,5.95
2023-09-28T15:58:47.263Z,6.80
2023-09-28T16:03:54.511Z,13.98
2023-09-28T16:08:57.565Z,16.48
2023-09-28T16:14:00.320Z,14.30
2023-09-28T16:19:04.088Z,16.08
2023-09-28T16:24:07.401Z,14.70
2023-09-28T16:29:10.309Z,15.93
2023-09-28T16:34:12.867Z,23.30
2023-09-28T16:39:15.390Z,16.83
2023-09-28T16:44:17.951Z,12.35
2023-09-28T16:49:20.820Z,12.02
2023-09-28T16:54:23.314Z,10.15
2023-09-28T16:59:25.952Z,19.45
2023-09-28T17:04:28.531Z,71.22
2023-09-28T17:09:31.039Z,37.40
2023-09-28T17:14:33.566Z,17.02
2023-09-28T17:19:36.085Z,14.07
2023-09-28T17:24:38.684Z,11.57
2023-09-28T17:29:41.268Z,10.10
2023-09-28T17:34:44.791Z,10.77
2023-09-28T17:39:47.780Z,10.93
2023-09-28T17:44:50.386Z,12.98
2023-09-28T17:49:53.215Z,15.85
2023-09-28T17:54:57.103Z,17.92
2023-09-28T17:59:59.614Z,20.58
2023-09-28T18:05:03.009Z,17.65
2023-09-28T18:10:06.068Z,17.05
2023-09-28T18:15:12.100Z,17.13
2023-09-28T18:20:14.624Z,17.85
2023-09-28T18:25:17.157Z,16.92
2023-09-28T18:30:19.848Z,17.00
2023-09-28T18:35:22.865Z,18.17
2023-09-28T18:40:25.861Z,15.50
2023-09-28T18:45:29.143Z,16.57
2023-09-28T18:50:31.669Z,17.70
2023-09-28T18:55:34.295Z,16.13
2023-09-28T19:00:37.347Z,16.93
2023-09-28T19:05:40.462Z,14.90
2023-09-28T19:10:43.052Z,14.67
2023-09-28T19:15:45.629Z,14.83
2023-09-28T19:20:49.019Z,15.70
2023-09-28T19:25:52.398Z,16.60
2023-09-28T19:30:54.871Z,18.67
2023-09-28T19:35:57.427Z,22.20
2023-09-28T19:41:01.343Z,20.80
2023-09-28T19:46:05.213Z,16.80
2023-09-28T19:51:07.783Z,17.50
2023-09-28T19:56:10.860Z,16.93
2023-09-28T20:01:13.760Z,15.40
2023-09-28T20:06:16.941Z,16.07
2023-09-28T20:11:19.432Z,16.60
2023-09-28T20:16:22.150Z,18.20
2023-09-28T20:21:25.594Z,18.40
2023-09-28T20:26:28.308Z,18.87
2023-09-28T20:31:30.835Z,19.50
2023-09-28T20:36:33.336Z,20.07
2023-09-28T20:41:35.955Z,19.07
2023-09-28T20:46:38.872Z,20.50
2023-09-28T20:51:41.544Z,19.10
2023-09-28T20:56:44.023Z,18.90
2023-09-28T21:01:47.575Z,18.33
2023-09-28T21:06:50.186Z,18.63
2023-09-28T21:11:55.400Z,18.67
2023-09-28T21:16:58.206Z,17.90
2023-09-28T21:22:00.687Z,19.57
2023-09-28T21:27:03.947Z,20.33
2023-09-28T21:32:06.450Z,22.23
2023-09-28T21:37:08.948Z,23.97
2023-09-28T21:42:11.611Z,23.20
2023-09-28T21:47:15.028Z,21.70
2023-09-28T21:52:17.560Z,21.63
2023-09-28T21:57:20.569Z,21.67
2023-09-28T22:02:23.065Z,20.50
2023-09-28T22:07:25.527Z,19.70
2023-09-28T22:12:28.065Z,18.27
2023-09-28T22:17:30.629Z,18.63
2023-09-28T22:22:34.151Z,18.03
2023-09-28T22:27:36.809Z,19.20
2023-09-28T22:32:41.206Z,17.30
2023-09-28T22:37:44.125Z,18.40
2023-09-28T22:42:46.612Z,18.30
2023-09-28T22:47:49.591Z,17.23
2023-09-28T22:52:52.287Z,18.07
2023-09-28T22:57:54.796Z,18.80
2023-09-28T23:02:57.493Z,19.10
2023-09-28T23:08:02.173Z,18.83
2023-09-28T23:13:05.864Z,18.70
2023-09-28T23:18:08.573Z,17.93
2023-09-28T23:23:11.279Z,18.80
2023-09-28T23:28:13.914Z,16.83
2023-09-28T23:33:16.496Z,17.33
2023-09-28T23:38:19.367Z,17.53
2023-09-28T23:43:21.893Z,16.97
2023-09-28T23:48:24.865Z,17.23
2023-09-28T23:53:29.748Z,17.30
2023-09-28T23:58:32.255Z,17.67
